sensor_id;sensor_type;location;lat;lon;timestamp;temperature;humidity
11961;DHT22;6040;49.358;11.140;2022-07-29T00:00:25;20.80;76.20
11961;DHT22;6040;49.358;11.140;2022-07-29T00:02:52;20.70;75.80
11961;DHT22;6040;49.358;11.140;2022-07-29T00:05:20;20.80;75.80
11961;DHT22;6040;49.358;11.140;2022-07-29T00:07:48;20.80;75.30
11961;DHT22;6040;49.358;11.140;2022-07-29T00:10:15;20.80;75.40
11961;DHT22;6040;49.358;11.140;2022-07-29T00:12:42;20.90;75.40
11961;DHT22;6040;49.358;11.140;2022-07-29T00:15:09;20.90;75.20
11961;DHT22;6040;49.358;11.140;2022-07-29T00:17:35;21.00;74.90
11961;DHT22;6040;49.358;11.140;2022-07-29T00:20:03;21.00;74.90
11961;DHT22;6040;49.358;11.140;2022-07-29T00:22:30;21.00;74.70
11961;DHT22;6040;49.358;11.140;2022-07-29T00:24:58;21.00;74.90
11961;DHT22;6040;49.358;11.140;2022-07-29T00:27:25;21.10;75.20
11961;DHT22;6040;49.358;11.140;2022-07-29T00:29:52;21.00;75.10
11961;DHT22;6040;49.358;11.140;2022-07-29T00:32:19;21.00;75.00
11961;DHT22;6040;49.358;11.140;2022-07-29T00:34:46;21.00;75.60
11961;DHT22;6040;49.358;11.140;2022-07-29T00:37:30;21.00;74.60
11961;DHT22;6040;49.358;11.140;2022-07-29T00:39:58;20.90;75.90
11961;DHT22;6040;49.358;11.140;2022-07-29T00:42:25;20.90;76.10
11961;DHT22;6040;49.358;11.140;2022-07-29T00:44:53;20.80;76.40
11961;DHT22;6040;49.358;11.140;2022-07-29T00:47:20;20.80;76.80
11961;DHT22;6040;49.358;11.140;2022-07-29T00:49:46;20.70;77.00
11961;DHT22;6040;49.358;11.140;2022-07-29T00:52:13;20.70;77.10
11961;DHT22;6040;49.358;11.140;2022-07-29T00:54:40;20.60;77.90
11961;DHT22;6040;49.358;11.140;2022-07-29T00:57:09;20.60;78.00
11961;DHT22;6040;49.358;11.140;2022-07-29T00:59:36;20.60;77.80
11961;DHT22;6040;49.358;11.140;2022-07-29T01:02:03;20.60;77.50
11961;DHT22;6040;49.358;11.140;2022-07-29T01:04:30;20.60;78.10
11961;DHT22;6040;49.358;11.140;2022-07-29T01:06:58;20.50;78.00
11961;DHT22;6040;49.358;11.140;2022-07-29T01:09:27;20.40;77.90
11961;DHT22;6040;49.358;11.140;2022-07-29T01:11:54;20.40;78.10
11961;DHT22;6040;49.358;11.140;2022-07-29T01:14:23;20.40;78.50
11961;DHT22;6040;49.358;11.140;2022-07-29T01:16:54;20.30;78.70
11961;DHT22;6040;49.358;11.140;2022-07-29T01:19:41;20.30;78.50
11961;DHT22;6040;49.358;11.140;2022-07-29T01:22:27;20.30;78.00
11961;DHT22;6040;49.358;11.140;2022-07-29T01:25:10;20.30;78.50
11961;DHT22;6040;49.358;11.140;2022-07-29T01:27:48;20.30;79.10
11961;DHT22;6040;49.358;11.140;2022-07-29T01:30:19;20.30;80.00
11961;DHT22;6040;49.358;11.140;2022-07-29T01:32:49;20.30;80.30
11961;DHT22;6040;49.358;11.140;2022-07-29T01:35:20;20.30;80.00
11961;DHT22;6040;49.358;11.140;2022-07-29T01:37:55;20.20;79.60
11961;DHT22;6040;49.358;11.140;2022-07-29T01:40:27;20.20;79.70
11961;DHT22;6040;49.358;11.140;2022-07-29T01:42:58;20.20;80.00
11961;DHT22;6040;49.358;11.140;2022-07-29T01:45:33;20.20;80.40
11961;DHT22;6040;49.358;11.140;2022-07-29T01:48:10;20.10;80.60
11961;DHT22;6040;49.358;11.140;2022-07-29T01:50:42;20.10;80.60
11961;DHT22;6040;49.358;11.140;2022-07-29T01:53:12;20.10;80.50
11961;DHT22;6040;49.358;11.140;2022-07-29T01:55:44;20.10;79.60
11961;DHT22;6040;49.358;11.140;2022-07-29T01:58:14;20.10;79.40
11961;DHT22;6040;49.358;11.140;2022-07-29T02:00:45;20.10;79.30
11961;DHT22;6040;49.358;11.140;2022-07-29T02:03:13;20.10;79.60
11961;DHT22;6040;49.358;11.140;2022-07-29T02:05:43;20.10;79.40
11961;DHT22;6040;49.358;11.140;2022-07-29T02:08:12;20.10;78.90
11961;DHT22;6040;49.358;11.140;2022-07-29T02:10:40;20.10;78.80
11961;DHT22;6040;49.358;11.140;2022-07-29T02:13:09;20.10;78.80
11961;DHT22;6040;49.358;11.140;2022-07-29T02:15:39;20.00;79.00
11961;DHT22;6040;49.358;11.140;2022-07-29T02:18:13;20.00;80.20
11961;DHT22;6040;49.358;11.140;2022-07-29T02:20:42;20.00;80.90
11961;DHT22;6040;49.358;11.140;2022-07-29T02:23:12;20.00;81.20
11961;DHT22;6040;49.358;11.140;2022-07-29T02:25:40;19.90;81.70
11961;DHT22;6040;49.358;11.140;2022-07-29T02:28:07;19.90;81.10
11961;DHT22;6040;49.358;11.140;2022-07-29T02:30:39;19.90;81.00
11961;DHT22;6040;49.358;11.140;2022-07-29T02:33:09;19.90;80.90
11961;DHT22;6040;49.358;11.140;2022-07-29T02:35:40;19.90;80.80
11961;DHT22;6040;49.358;11.140;2022-07-29T02:38:08;19.90;81.00
11961;DHT22;6040;49.358;11.140;2022-07-29T02:40:53;19.90;80.90
11961;DHT22;6040;49.358;11.140;2022-07-29T02:43:22;19.80;80.60
11961;DHT22;6040;49.358;11.140;2022-07-29T02:45:52;19.80;80.50
11961;DHT22;6040;49.358;11.140;2022-07-29T02:48:29;19.80;80.60
11961;DHT22;6040;49.358;11.140;2022-07-29T02:51:04;19.80;80.70
11961;DHT22;6040;49.358;11.140;2022-07-29T02:53:33;19.70;80.70
11961;DHT22;6040;49.358;11.140;2022-07-29T02:56:06;19.70;80.70
11961;DHT22;6040;49.358;11.140;2022-07-29T02:58:38;19.70;81.00
11961;DHT22;6040;49.358;11.140;2022-07-29T03:01:11;19.60;81.60
11961;DHT22;6040;49.358;11.140;2022-07-29T03:03:45;19.60;81.60
11961;DHT22;6040;49.358;11.140;2022-07-29T03:06:14;19.60;82.30
11961;DHT22;6040;49.358;11.140;2022-07-29T03:08:42;19.60;82.30
11961;DHT22;6040;49.358;11.140;2022-07-29T03:11:10;19.60;82.20
11961;DHT22;6040;49.358;11.140;2022-07-29T03:13:38;19.60;82.70
11961;DHT22;6040;49.358;11.140;2022-07-29T03:16:06;19.60;82.90
11961;DHT22;6040;49.358;11.140;2022-07-29T03:18:34;19.50;83.30
11961;DHT22;6040;49.358;11.140;2022-07-29T03:21:04;19.50;83.40
11961;DHT22;6040;49.358;11.140;2022-07-29T03:23:31;19.50;83.20
11961;DHT22;6040;49.358;11.140;2022-07-29T03:25:57;19.50;83.00
11961;DHT22;6040;49.358;11.140;2022-07-29T03:28:24;19.50;82.50
11961;DHT22;6040;49.358;11.140;2022-07-29T03:30:53;19.40;82.40
11961;DHT22;6040;49.358;11.140;2022-07-29T03:33:20;19.50;82.40
11961;DHT22;6040;49.358;11.140;2022-07-29T03:35:47;19.50;82.80
11961;DHT22;6040;49.358;11.140;2022-07-29T03:38:15;19.50;83.90
11961;DHT22;6040;49.358;11.140;2022-07-29T03:40:46;19.40;83.40
11961;DHT22;6040;49.358;11.140;2022-07-29T03:43:17;19.40;83.70
11961;DHT22;6040;49.358;11.140;2022-07-29T03:45:48;19.40;83.80
11961;DHT22;6040;49.358;11.140;2022-07-29T03:48:19;19.30;84.10
11961;DHT22;6040;49.358;11.140;2022-07-29T03:50:47;19.30;84.40
11961;DHT22;6040;49.358;11.140;2022-07-29T03:53:15;19.30;84.70
11961;DHT22;6040;49.358;11.140;2022-07-29T03:55:44;19.20;85.10
11961;DHT22;6040;49.358;11.140;2022-07-29T03:58:12;19.20;85.60
11961;DHT22;6040;49.358;11.140;2022-07-29T04:00:41;19.20;85.70
11961;DHT22;6040;49.358;11.140;2022-07-29T04:03:08;19.20;85.60
11961;DHT22;6040;49.358;11.140;2022-07-29T04:05:36;19.10;86.30
11961;DHT22;6040;49.358;11.140;2022-07-29T04:08:03;19.10;85.80
11961;DHT22;6040;49.358;11.140;2022-07-29T04:10:31;19.10;85.40
11961;DHT22;6040;49.358;11.140;2022-07-29T04:12:58;19.10;85.30
11961;DHT22;6040;49.358;11.140;2022-07-29T04:15:25;19.10;85.40
11961;DHT22;6040;49.358;11.140;2022-07-29T04:17:54;19.10;86.00
11961;DHT22;6040;49.358;11.140;2022-07-29T04:20:21;19.10;84.70
11961;DHT22;6040;49.358;11.140;2022-07-29T04:22:47;19.10;85.30
11961;DHT22;6040;49.358;11.140;2022-07-29T04:25:14;19.10;85.40
11961;DHT22;6040;49.358;11.140;2022-07-29T04:27:42;19.10;85.20
11961;DHT22;6040;49.358;11.140;2022-07-29T04:30:23;19.10;85.30
11961;DHT22;6040;49.358;11.140;2022-07-29T04:32:50;19.10;85.80
11961;DHT22;6040;49.358;11.140;2022-07-29T04:35:17;19.10;85.80
11961;DHT22;6040;49.358;11.140;2022-07-29T04:37:44;19.10;86.40
11961;DHT22;6040;49.358;11.140;2022-07-29T04:40:11;19.00;86.50
11961;DHT22;6040;49.358;11.140;2022-07-29T04:42:38;19.00;87.50
11961;DHT22;6040;49.358;11.140;2022-07-29T04:45:07;19.00;87.40
11961;DHT22;6040;49.358;11.140;2022-07-29T04:47:34;19.00;87.30
11961;DHT22;6040;49.358;11.140;2022-07-29T04:50:01;19.00;88.20
11961;DHT22;6040;49.358;11.140;2022-07-29T04:52:28;18.90;88.60
11961;DHT22;6040;49.358;11.140;2022-07-29T04:54:55;18.90;88.00
11961;DHT22;6040;49.358;11.140;2022-07-29T04:57:22;18.90;88.50
11961;DHT22;6040;49.358;11.140;2022-07-29T04:59:49;18.80;89.10
11961;DHT22;6040;49.358;11.140;2022-07-29T05:02:17;18.80;89.90
11961;DHT22;6040;49.358;11.140;2022-07-29T05:04:44;18.80;90.10
11961;DHT22;6040;49.358;11.140;2022-07-29T05:07:11;18.80;89.90
11961;DHT22;6040;49.358;11.140;2022-07-29T05:09:38;18.80;90.10
11961;DHT22;6040;49.358;11.140;2022-07-29T05:12:06;18.90;90.40
11961;DHT22;6040;49.358;11.140;2022-07-29T05:14:33;18.90;90.40
11961;DHT22;6040;49.358;11.140;2022-07-29T05:16:59;18.90;90.30
11961;DHT22;6040;49.358;11.140;2022-07-29T05:19:28;19.00;90.20
11961;DHT22;6040;49.358;11.140;2022-07-29T05:21:55;19.00;89.70
11961;DHT22;6040;49.358;11.140;2022-07-29T05:24:21;19.10;90.20
11961;DHT22;6040;49.358;11.140;2022-07-29T05:26:48;19.20;90.50
11961;DHT22;6040;49.358;11.140;2022-07-29T05:29:15;20.00;89.30
11961;DHT22;6040;49.358;11.140;2022-07-29T05:31:42;21.00;85.10
11961;DHT22;6040;49.358;11.140;2022-07-29T05:34:09;22.30;79.90
11961;DHT22;6040;49.358;11.140;2022-07-29T05:36:37;23.60;75.10
11961;DHT22;6040;49.358;11.140;2022-07-29T05:39:04;24.80;71.00
11961;DHT22;6040;49.358;11.140;2022-07-29T05:41:32;25.70;68.00
11961;DHT22;6040;49.358;11.140;2022-07-29T05:43:59;26.70;65.80
11961;DHT22;6040;49.358;11.140;2022-07-29T05:46:25;27.60;63.20
11961;DHT22;6040;49.358;11.140;2022-07-29T05:48:52;28.30;61.10
11961;DHT22;6040;49.358;11.140;2022-07-29T05:51:19;28.90;59.90
11961;DHT22;6040;49.358;11.140;2022-07-29T05:53:47;29.50;58.80
11961;DHT22;6040;49.358;11.140;2022-07-29T05:56:14;29.90;58.10
11961;DHT22;6040;49.358;11.140;2022-07-29T05:58:41;30.70;56.40
11961;DHT22;6040;49.358;11.140;2022-07-29T06:01:08;31.20;55.30
11961;DHT22;6040;49.358;11.140;2022-07-29T06:03:35;31.60;54.00
11961;DHT22;6040;49.358;11.140;2022-07-29T06:06:03;31.80;53.00
11961;DHT22;6040;49.358;11.140;2022-07-29T06:08:31;32.10;53.30
11961;DHT22;6040;49.358;11.140;2022-07-29T06:11:00;32.40;52.70
11961;DHT22;6040;49.358;11.140;2022-07-29T06:13:27;33.10;52.50
11961;DHT22;6040;49.358;11.140;2022-07-29T06:15:54;33.40;51.00
11961;DHT22;6040;49.358;11.140;2022-07-29T06:18:21;33.30;51.30
11961;DHT22;6040;49.358;11.140;2022-07-29T06:20:49;33.20;51.20
11961;DHT22;6040;49.358;11.140;2022-07-29T06:23:16;32.90;51.90
11961;DHT22;6040;49.358;11.140;2022-07-29T06:25:43;32.10;51.90
11961;DHT22;6040;49.358;11.140;2022-07-29T06:28:11;32.10;53.00
11961;DHT22;6040;49.358;11.140;2022-07-29T06:30:39;32.30;52.60
11961;DHT22;6040;49.358;11.140;2022-07-29T06:33:06;31.50;52.70
11961;DHT22;6040;49.358;11.140;2022-07-29T06:35:33;30.10;55.50
11961;DHT22;6040;49.358;11.140;2022-07-29T06:38:02;28.90;56.70
11961;DHT22;6040;49.358;11.140;2022-07-29T06:40:29;28.00;59.30
11961;DHT22;6040;49.358;11.140;2022-07-29T06:43:14;27.10;59.90
11961;DHT22;6040;49.358;11.140;2022-07-29T06:45:42;26.50;62.70
11961;DHT22;6040;49.358;11.140;2022-07-29T06:48:09;26.30;63.70
11961;DHT22;6040;49.358;11.140;2022-07-29T06:50:36;26.30;62.90
11961;DHT22;6040;49.358;11.140;2022-07-29T06:53:03;26.30;63.90
11961;DHT22;6040;49.358;11.140;2022-07-29T06:55:30;26.70;63.50
11961;DHT22;6040;49.358;11.140;2022-07-29T06:57:57;27.10;63.50
11961;DHT22;6040;49.358;11.140;2022-07-29T07:00:26;27.20;61.40
11961;DHT22;6040;49.358;11.140;2022-07-29T07:02:53;27.30;63.70
11961;DHT22;6040;49.358;11.140;2022-07-29T07:05:19;27.00;62.10
11961;DHT22;6040;49.358;11.140;2022-07-29T07:07:46;26.90;63.30
11961;DHT22;6040;49.358;11.140;2022-07-29T07:10:13;26.80;62.50
11961;DHT22;6040;49.358;11.140;2022-07-29T07:12:40;26.30;63.50
11961;DHT22;6040;49.358;11.140;2022-07-29T07:15:07;26.20;65.10
11961;DHT22;6040;49.358;11.140;2022-07-29T07:17:36;26.30;67.20
11961;DHT22;6040;49.358;11.140;2022-07-29T07:20:04;26.40;65.80
11961;DHT22;6040;49.358;11.140;2022-07-29T07:22:31;26.80;65.10
11961;DHT22;6040;49.358;11.140;2022-07-29T07:24:58;26.90;64.10
11961;DHT22;6040;49.358;11.140;2022-07-29T07:27:25;27.00;64.20
11961;DHT22;6040;49.358;11.140;2022-07-29T07:29:53;27.30;67.20
11961;DHT22;6040;49.358;11.140;2022-07-29T07:32:20;27.50;63.50
11961;DHT22;6040;49.358;11.140;2022-07-29T07:34:48;27.30;63.50
11961;DHT22;6040;49.358;11.140;2022-07-29T07:37:15;27.40;66.70
11961;DHT22;6040;49.358;11.140;2022-07-29T07:39:42;27.60;66.40
11961;DHT22;6040;49.358;11.140;2022-07-29T07:42:09;27.70;65.00
11961;DHT22;6040;49.358;11.140;2022-07-29T07:44:38;27.60;63.50
11961;DHT22;6040;49.358;11.140;2022-07-29T07:47:05;27.50;63.40
11961;DHT22;6040;49.358;11.140;2022-07-29T07:49:32;27.50;66.00
11961;DHT22;6040;49.358;11.140;2022-07-29T07:52:00;27.80;65.40
11961;DHT22;6040;49.358;11.140;2022-07-29T07:54:27;28.10;65.40
11961;DHT22;6040;49.358;11.140;2022-07-29T07:56:54;28.70;64.80
11961;DHT22;6040;49.358;11.140;2022-07-29T07:59:21;29.30;62.70
11961;DHT22;6040;49.358;11.140;2022-07-29T08:01:48;29.40;60.70
11961;DHT22;6040;49.358;11.140;2022-07-29T08:04:15;29.10;59.80
11961;DHT22;6040;49.358;11.140;2022-07-29T08:06:42;29.10;60.90
11961;DHT22;6040;49.358;11.140;2022-07-29T08:09:10;29.20;61.90
11961;DHT22;6040;49.358;11.140;2022-07-29T08:11:37;29.40;62.90
11961;DHT22;6040;49.358;11.140;2022-07-29T08:14:04;29.80;61.60
11961;DHT22;6040;49.358;11.140;2022-07-29T08:18:58;30.60;59.50
11961;DHT22;6040;49.358;11.140;2022-07-29T08:21:25;30.50;58.40
11961;DHT22;6040;49.358;11.140;2022-07-29T08:23:52;30.10;59.40
11961;DHT22;6040;49.358;11.140;2022-07-29T08:26:40;30.00;59.80
11961;DHT22;6040;49.358;11.140;2022-07-29T08:29:08;29.70;59.70
11961;DHT22;6040;49.358;11.140;2022-07-29T08:31:35;29.50;60.90
11961;DHT22;6040;49.358;11.140;2022-07-29T08:34:02;29.50;60.70
11961;DHT22;6040;49.358;11.140;2022-07-29T08:36:29;29.70;63.60
11961;DHT22;6040;49.358;11.140;2022-07-29T08:38:56;30.30;62.50
11961;DHT22;6040;49.358;11.140;2022-07-29T08:41:23;30.70;59.40
11961;DHT22;6040;49.358;11.140;2022-07-29T08:43:52;30.80;59.00
11961;DHT22;6040;49.358;11.140;2022-07-29T08:46:19;31.00;57.50
11961;DHT22;6040;49.358;11.140;2022-07-29T08:48:47;31.20;57.80
11961;DHT22;6040;49.358;11.140;2022-07-29T08:51:16;31.40;58.60
11961;DHT22;6040;49.358;11.140;2022-07-29T08:53:45;31.80;58.10
11961;DHT22;6040;49.358;11.140;2022-07-29T08:56:13;32.30;57.00
11961;DHT22;6040;49.358;11.140;2022-07-29T08:58:42;32.40;56.20
11961;DHT22;6040;49.358;11.140;2022-07-29T09:01:12;32.50;55.10
11961;DHT22;6040;49.358;11.140;2022-07-29T09:03:40;32.50;56.80
11961;DHT22;6040;49.358;11.140;2022-07-29T09:06:12;32.90;56.80
11961;DHT22;6040;49.358;11.140;2022-07-29T09:08:40;33.50;56.50
11961;DHT22;6040;49.358;11.140;2022-07-29T09:11:07;33.70;53.80
11961;DHT22;6040;49.358;11.140;2022-07-29T09:13:34;33.70;52.60
11961;DHT22;6040;49.358;11.140;2022-07-29T09:16:01;33.40;53.90
11961;DHT22;6040;49.358;11.140;2022-07-29T09:18:37;32.80;54.30
11961;DHT22;6040;49.358;11.140;2022-07-29T09:21:04;32.70;54.60
11961;DHT22;6040;49.358;11.140;2022-07-29T09:24:06;32.90;56.40
11961;DHT22;6040;49.358;11.140;2022-07-29T09:26:35;33.40;54.40
11961;DHT22;6040;49.358;11.140;2022-07-29T09:29:08;33.30;53.00
11961;DHT22;6040;49.358;11.140;2022-07-29T09:31:38;33.10;53.00
11961;DHT22;6040;49.358;11.140;2022-07-29T09:34:07;33.20;53.60
11961;DHT22;6040;49.358;11.140;2022-07-29T09:36:39;32.50;54.30
11961;DHT22;6040;49.358;11.140;2022-07-29T09:39:06;32.30;55.50
11961;DHT22;6040;49.358;11.140;2022-07-29T09:41:44;32.20;55.50
11961;DHT22;6040;49.358;11.140;2022-07-29T09:44:11;32.30;55.60
11961;DHT22;6040;49.358;11.140;2022-07-29T09:46:38;32.10;55.90
11961;DHT22;6040;49.358;11.140;2022-07-29T09:49:09;32.10;55.90
11961;DHT22;6040;49.358;11.140;2022-07-29T09:51:37;31.90;55.60
11961;DHT22;6040;49.358;11.140;2022-07-29T09:54:21;31.40;57.20
11961;DHT22;6040;49.358;11.140;2022-07-29T09:56:49;31.20;58.00
11961;DHT22;6040;49.358;11.140;2022-07-29T09:59:16;31.20;57.60
11961;DHT22;6040;49.358;11.140;2022-07-29T10:01:43;31.20;57.40
11961;DHT22;6040;49.358;11.140;2022-07-29T10:04:11;31.30;58.20
11961;DHT22;6040;49.358;11.140;2022-07-29T10:06:56;31.40;57.40
11961;DHT22;6040;49.358;11.140;2022-07-29T10:09:23;31.90;55.80
11961;DHT22;6040;49.358;11.140;2022-07-29T10:12:07;32.20;56.10
11961;DHT22;6040;49.358;11.140;2022-07-29T10:14:35;32.00;55.60
11961;DHT22;6040;49.358;11.140;2022-07-29T10:17:03;31.70;57.50
11961;DHT22;6040;49.358;11.140;2022-07-29T10:19:32;31.80;56.80
11961;DHT22;6040;49.358;11.140;2022-07-29T10:22:01;32.00;56.80
11961;DHT22;6040;49.358;11.140;2022-07-29T10:24:30;32.30;56.40
11961;DHT22;6040;49.358;11.140;2022-07-29T10:26:58;32.90;56.60
11961;DHT22;6040;49.358;11.140;2022-07-29T10:29:26;33.50;53.70
11961;DHT22;6040;49.358;11.140;2022-07-29T10:32:13;33.50;54.60
11961;DHT22;6040;49.358;11.140;2022-07-29T10:35:11;33.90;55.60
11961;DHT22;6040;49.358;11.140;2022-07-29T10:38:09;33.90;52.80
11961;DHT22;6040;49.358;11.140;2022-07-29T10:40:46;34.30;54.80
11961;DHT22;6040;49.358;11.140;2022-07-29T10:43:35;34.50;53.00
11961;DHT22;6040;49.358;11.140;2022-07-29T10:46:04;34.30;52.20
11961;DHT22;6040;49.358;11.140;2022-07-29T10:48:31;34.00;52.20
11961;DHT22;6040;49.358;11.140;2022-07-29T10:51:01;33.60;53.60
11961;DHT22;6040;49.358;11.140;2022-07-29T10:53:48;33.70;53.90
11961;DHT22;6040;49.358;11.140;2022-07-29T10:56:26;34.10;52.00
11961;DHT22;6040;49.358;11.140;2022-07-29T10:59:23;34.30;51.40
11961;DHT22;6040;49.358;11.140;2022-07-29T11:01:52;34.40;50.20
11961;DHT22;6040;49.358;11.140;2022-07-29T11:07:26;35.10;51.10
11961;DHT22;6040;49.358;11.140;2022-07-29T11:12:47;36.10;50.50
11961;DHT22;6040;49.358;11.140;2022-07-29T11:15:16;36.40;50.70
11961;DHT22;6040;49.358;11.140;2022-07-29T11:18:07;36.60;50.10
11961;DHT22;6040;49.358;11.140;2022-07-29T11:20:37;36.60;49.20
11961;DHT22;6040;49.358;11.140;2022-07-29T11:23:31;36.30;50.40
11961;DHT22;6040;49.358;11.140;2022-07-29T11:26:16;36.10;49.40
11961;DHT22;6040;49.358;11.140;2022-07-29T11:29:04;35.60;51.00
11961;DHT22;6040;49.358;11.140;2022-07-29T11:31:35;35.40;51.00
11961;DHT22;6040;49.358;11.140;2022-07-29T11:34:19;35.30;49.80
11961;DHT22;6040;49.358;11.140;2022-07-29T11:37:15;35.50;49.50
11961;DHT22;6040;49.358;11.140;2022-07-29T11:39:44;35.20;50.00
11961;DHT22;6040;49.358;11.140;2022-07-29T11:42:37;35.20;50.60
11961;DHT22;6040;49.358;11.140;2022-07-29T11:45:05;35.40;50.20
11961;DHT22;6040;49.358;11.140;2022-07-29T11:47:34;35.20;50.10
11961;DHT22;6040;49.358;11.140;2022-07-29T11:50:04;34.90;51.10
11961;DHT22;6040;49.358;11.140;2022-07-29T11:52:33;34.90;50.30
11961;DHT22;6040;49.358;11.140;2022-07-29T11:55:05;35.30;52.40
11961;DHT22;6040;49.358;11.140;2022-07-29T11:57:34;35.50;49.80
11961;DHT22;6040;49.358;11.140;2022-07-29T12:00:02;35.90;48.80
11961;DHT22;6040;49.358;11.140;2022-07-29T12:02:39;35.90;48.70
11961;DHT22;6040;49.358;11.140;2022-07-29T12:05:08;36.10;49.40
11961;DHT22;6040;49.358;11.140;2022-07-29T12:07:36;36.30;47.20
11961;DHT22;6040;49.358;11.140;2022-07-29T12:10:06;36.90;47.00
11961;DHT22;6040;49.358;11.140;2022-07-29T12:12:33;37.20;47.20
11961;DHT22;6040;49.358;11.140;2022-07-29T12:15:11;37.50;47.30
11961;DHT22;6040;49.358;11.140;2022-07-29T12:17:38;37.80;44.70
11961;DHT22;6040;49.358;11.140;2022-07-29T12:20:06;37.70;46.30
11961;DHT22;6040;49.358;11.140;2022-07-29T12:22:34;37.80;46.90
11961;DHT22;6040;49.358;11.140;2022-07-29T12:25:04;38.20;46.20
11961;DHT22;6040;49.358;11.140;2022-07-29T12:27:32;38.30;45.20
11961;DHT22;6040;49.358;11.140;2022-07-29T12:30:04;38.20;45.40
11961;DHT22;6040;49.358;11.140;2022-07-29T12:32:47;38.40;45.70
11961;DHT22;6040;49.358;11.140;2022-07-29T12:35:15;38.10;47.30
11961;DHT22;6040;49.358;11.140;2022-07-29T12:37:45;37.40;48.80
11961;DHT22;6040;49.358;11.140;2022-07-29T12:40:18;36.60;50.10
11961;DHT22;6040;49.358;11.140;2022-07-29T12:43:09;36.00;50.50
11961;DHT22;6040;49.358;11.140;2022-07-29T12:45:37;35.40;52.50
11961;DHT22;6040;49.358;11.140;2022-07-29T12:48:05;35.00;52.20
11961;DHT22;6040;49.358;11.140;2022-07-29T12:50:36;34.50;52.20
11961;DHT22;6040;49.358;11.140;2022-07-29T12:53:10;34.20;52.80
11961;DHT22;6040;49.358;11.140;2022-07-29T12:55:40;34.00;53.10
11961;DHT22;6040;49.358;11.140;2022-07-29T12:58:07;33.80;53.50
11961;DHT22;6040;49.358;11.140;2022-07-29T13:00:34;33.50;54.00
11961;DHT22;6040;49.358;11.140;2022-07-29T13:03:01;33.20;55.00
11961;DHT22;6040;49.358;11.140;2022-07-29T13:05:39;33.00;54.70
11961;DHT22;6040;49.358;11.140;2022-07-29T13:08:11;32.80;55.20
11961;DHT22;6040;49.358;11.140;2022-07-29T13:10:39;32.50;55.30
11961;DHT22;6040;49.358;11.140;2022-07-29T13:13:08;32.30;55.30
11961;DHT22;6040;49.358;11.140;2022-07-29T13:15:36;32.20;55.60
11961;DHT22;6040;49.358;11.140;2022-07-29T13:18:03;31.70;56.00
11961;DHT22;6040;49.358;11.140;2022-07-29T13:20:31;30.90;57.80
11961;DHT22;6040;49.358;11.140;2022-07-29T13:22:59;30.30;59.20
11961;DHT22;6040;49.358;11.140;2022-07-29T13:25:28;29.70;62.40
11961;DHT22;6040;49.358;11.140;2022-07-29T13:27:57;28.70;66.30
11961;DHT22;6040;49.358;11.140;2022-07-29T13:30:25;28.10;72.90
11961;DHT22;6040;49.358;11.140;2022-07-29T13:32:52;27.60;75.80
11961;DHT22;6040;49.358;11.140;2022-07-29T13:35:20;27.40;72.40
11961;DHT22;6040;49.358;11.140;2022-07-29T13:37:47;27.20;91.90
11961;DHT22;6040;49.358;11.140;2022-07-29T13:40:14;27.20;71.80
11961;DHT22;6040;49.358;11.140;2022-07-29T13:42:41;27.20;90.00
11961;DHT22;6040;49.358;11.140;2022-07-29T13:45:10;27.30;90.30
11961;DHT22;6040;49.358;11.140;2022-07-29T13:47:38;27.20;96.30
11961;DHT22;6040;49.358;11.140;2022-07-29T13:50:06;26.90;72.00
11961;DHT22;6040;49.358;11.140;2022-07-29T13:52:35;26.90;71.60
11961;DHT22;6040;49.358;11.140;2022-07-29T13:55:04;26.80;71.30
11961;DHT22;6040;49.358;11.140;2022-07-29T13:57:31;26.80;94.90
11961;DHT22;6040;49.358;11.140;2022-07-29T13:59:58;26.70;95.60
11961;DHT22;6040;49.358;11.140;2022-07-29T14:02:26;26.60;95.80
11961;DHT22;6040;49.358;11.140;2022-07-29T14:04:53;26.70;94.90
11961;DHT22;6040;49.358;11.140;2022-07-29T14:07:21;26.70;96.50
11961;DHT22;6040;49.358;11.140;2022-07-29T14:09:48;26.70;96.50
11961;DHT22;6040;49.358;11.140;2022-07-29T14:12:15;26.70;96.00
11961;DHT22;6040;49.358;11.140;2022-07-29T14:14:43;26.60;96.90
11961;DHT22;6040;49.358;11.140;2022-07-29T14:17:09;26.40;98.80
11961;DHT22;6040;49.358;11.140;2022-07-29T14:19:38;26.10;94.90
11961;DHT22;6040;49.358;11.140;2022-07-29T14:22:06;26.20;94.20
11961;DHT22;6040;49.358;11.140;2022-07-29T14:24:34;26.20;94.50
11961;DHT22;6040;49.358;11.140;2022-07-29T14:27:01;26.20;93.90
11961;DHT22;6040;49.358;11.140;2022-07-29T14:29:28;26.40;94.20
11961;DHT22;6040;49.358;11.140;2022-07-29T14:31:54;26.60;94.10
11961;DHT22;6040;49.358;11.140;2022-07-29T14:34:21;26.60;93.60
11961;DHT22;6040;49.358;11.140;2022-07-29T14:36:49;26.50;93.50
11961;DHT22;6040;49.358;11.140;2022-07-29T14:39:16;26.50;93.70
11961;DHT22;6040;49.358;11.140;2022-07-29T14:41:44;26.70;95.60
11961;DHT22;6040;49.358;11.140;2022-07-29T14:44:10;26.70;95.40
11961;DHT22;6040;49.358;11.140;2022-07-29T14:46:38;26.90;93.90
11961;DHT22;6040;49.358;11.140;2022-07-29T14:49:05;27.20;93.30
11961;DHT22;6040;49.358;11.140;2022-07-29T14:51:32;27.50;93.90
11961;DHT22;6040;49.358;11.140;2022-07-29T14:54:01;28.10;93.30
11961;DHT22;6040;49.358;11.140;2022-07-29T14:56:28;27.90;92.00
11961;DHT22;6040;49.358;11.140;2022-07-29T14:58:55;28.30;93.50
11961;DHT22;6040;49.358;11.140;2022-07-29T15:01:23;28.30;92.20
11961;DHT22;6040;49.358;11.140;2022-07-29T15:03:49;28.30;91.20
11961;DHT22;6040;49.358;11.140;2022-07-29T15:06:17;28.30;91.00
11961;DHT22;6040;49.358;11.140;2022-07-29T15:08:43;28.10;91.10
11961;DHT22;6040;49.358;11.140;2022-07-29T15:11:12;28.00;91.70
11961;DHT22;6040;49.358;11.140;2022-07-29T15:13:39;28.00;91.20
11961;DHT22;6040;49.358;11.140;2022-07-29T15:16:05;28.00;91.30
11961;DHT22;6040;49.358;11.140;2022-07-29T15:18:33;27.90;90.60
11961;DHT22;6040;49.358;11.140;2022-07-29T15:20:59;27.90;91.50
11961;DHT22;6040;49.358;11.140;2022-07-29T15:23:27;27.90;91.80
11961;DHT22;6040;49.358;11.140;2022-07-29T15:25:54;27.90;91.30
11961;DHT22;6040;49.358;11.140;2022-07-29T15:28:22;27.80;92.50
11961;DHT22;6040;49.358;11.140;2022-07-29T15:30:49;27.90;92.80
11961;DHT22;6040;49.358;11.140;2022-07-29T15:33:16;27.90;98.90
11961;DHT22;6040;49.358;11.140;2022-07-29T15:35:43;27.90;99.90
11961;DHT22;6040;49.358;11.140;2022-07-29T15:50:33;27.30;70.80
11961;DHT22;6040;49.358;11.140;2022-07-29T15:53:01;27.40;72.60
11961;DHT22;6040;49.358;11.140;2022-07-29T15:55:27;27.30;72.40
11961;DHT22;6040;49.358;11.140;2022-07-29T15:57:54;27.30;73.20
11961;DHT22;6040;49.358;11.140;2022-07-29T16:00:21;27.20;74.10
11961;DHT22;6040;49.358;11.140;2022-07-29T16:02:50;27.20;75.10
11961;DHT22;6040;49.358;11.140;2022-07-29T16:05:17;27.10;75.50